Terminal Aerodrome Forecast
Issued by NWS Kansas City/Pleasant Hill, MO

Home | Current Version | Previous Version | Text Only | Print | Product List | Glossary On
Versions: 1 2 3 4 5 6 7 8 9 10 11 12 13 14 15 16 17 18 19
000
FTUS43 KEAX 262100 AAA
TAFMCI
TAF AMD
KMCI 262100Z 2621/2718 17014G22KT 5SM -TSRA BR BKN040CB
      TEMPO 2621/2622 VRB35G45KT 1SM +TSRAGR FC BKN035CB
     FM262200 17014G23KT 5SM -TSRA BR BKN035CB
      TEMPO 2622/2702 VRB20G35KT 2SM TSRA BR BKN035CB
     FM270600 15010KT P6SM VCTS BKN060CB
     FM271100 17012KT P6SM OVC012=

USA.gov is the U.S. government's official web portal to all federal, state and local government web resources and services.